Skip Navigation LinksHome page > Weather > Current weather Skip Navigation Links

Current Weather

Eureka, Nunavut

For information only: do not use for flight planning or navigation.
Latest weather
Observation time Thursday, October 23, 2014 4:00 AM CDT
Local time Thursday, October 23, 2014 5:05 AM CDT
Flight conditions Visual Meteorological Conditions
Winds
Wind speed calm
Visibility 12 mi.
Present weather light snow
Sky condition
Ceiling 16,000 ft. overcast
Cloud layer overcast 16,000 ft.
Temperature -13°F
Dewpoint -18°F
Altimeter 29.96 in.Hg
Derived measurements
Relative humidity 76%
Wind chill -13°F
Density altitude -5183 ft.
Sea-level pressure 29.96 in.Hg
METAR CWEU 230900Z 00000KT 12SM -SN OVC160 M25/M28 A2996 RMK AC8 SLP146

Settings

Location code

InnerDrive.Weather 4.0.5399.0 Release CLR 4.0.30319.34014
Copyright ©2014 Inner Drive Technology. All rights reserved. Portions Copyright ©1986-2014 David Braverman.

Find weather

Site navigation


Skip Navigation Links

Place info

Page info

PayPal - The safer, easier way to pay online!

Return home.

Copyright ©2014 Inner Drive Technology. Purveyors of fine, hand-crafted computer software. Page printed 2014-10-23T10:05:38 UTC.